Time;durP1;ratioP1;P1;durP2;ratioP2;P2;SDS_P1;SDS_P2;PMS_P1;PMS_P2;Temp;Humidity;BMP_temperature;BMP_pressure;BME280_temperature;BME280_humidity;BME280_pressure;Samples;Min_cycle;Max_cycle;Signal;HPM_P1;HPM_P2
2022/05/30 00:00:38;;;;;;;15.60;2.70;;;8.10;99.90;;;;;;4903631;28;200782;-68
2022/05/30 00:03:06;;;;;;;15.05;2.85;;;8.10;99.90;;;;;;5027140;28;20443;-68
2022/05/30 00:05:33;;;;;;;14.00;2.70;;;8.00;99.90;;;;;;4931590;28;231674;-68
2022/05/30 00:07:59;;;;;;;16.35;2.55;;;8.00;99.90;;;;;;5024427;28;20060;-68
2022/05/30 00:10:27;;;;;;;13.38;2.30;;;8.00;99.90;;;;;;4945103;28;212441;-69
2022/05/30 00:12:55;;;;;;;15.18;2.50;;;8.00;99.90;;;;;;5044293;28;20981;-68
2022/05/30 00:15:22;;;;;;;14.05;2.85;;;8.00;99.90;;;;;;4947769;28;209554;-68
2022/05/30 00:17:52;;;;;;;13.95;2.80;;;7.90;99.90;;;;;;5043713;28;20053;-68
2022/05/30 00:20:18;;;;;;;12.50;2.47;;;7.90;99.90;;;;;;4975342;28;209923;-69
2022/05/30 00:22:46;;;;;;;17.05;3.25;;;7.90;99.90;;;;;;5026757;28;20064;-69
2022/05/30 00:25:12;;;;;;;14.13;2.85;;;7.90;99.90;;;;;;4958565;28;213309;-69
2022/05/30 00:27:38;;;;;;;15.52;2.70;;;7.90;99.90;;;;;;5024794;28;20072;-69
2022/05/30 00:30:06;;;;;;;16.75;2.80;;;7.90;99.90;;;;;;4955650;28;211245;-69
2022/05/30 00:32:33;;;;;;;11.10;2.58;;;7.90;99.90;;;;;;5036538;28;20636;-69
2022/05/30 00:34:59;;;;;;;12.07;2.80;;;7.90;99.90;;;;;;4965571;28;206919;-69
2022/05/30 00:37:26;;;;;;;11.65;2.72;;;7.90;99.90;;;;;;5032795;28;20049;-68
2022/05/30 00:39:53;;;;;;;12.20;3.00;;;7.90;99.90;;;;;;4935654;28;206313;-69
2022/05/30 00:42:22;;;;;;;13.15;2.65;;;7.90;99.90;;;;;;5028956;28;20497;-71
2022/05/30 00:44:49;;;;;;;11.40;3.13;;;7.80;99.90;;;;;;4961335;28;210180;-69
2022/05/30 00:47:17;;;;;;;14.55;3.08;;;7.70;99.90;;;;;;5032694;28;20454;-69
2022/05/30 00:49:46;;;;;;;14.40;3.03;;;7.70;99.90;;;;;;4973321;28;215373;-69
2022/05/30 00:52:25;;;;;;;15.20;3.00;;;7.60;99.90;;;;;;5042632;28;20084;-69
2022/05/30 00:55:00;;;;;;;15.18;3.20;;;7.60;99.90;;;;;;4960771;28;255671;-69
2022/05/30 00:57:29;;;;;;;14.35;3.40;;;7.50;99.90;;;;;;5032599;28;20072;-68
2022/05/30 01:00:10;;;;;;;13.52;2.75;;;7.50;99.90;;;;;;4985019;28;210152;-69
2022/05/30 01:02:39;;;;;;;14.68;2.90;;;7.40;99.90;;;;;;5035229;28;20056;-69
2022/05/30 01:07:53;;;;;;;11.48;2.70;;;7.30;99.90;;;;;;5041130;28;20053;-68
2022/05/30 01:10:23;;;;;;;18.75;3.40;;;7.30;99.90;;;;;;4965436;28;217145;-69
2022/05/30 01:12:55;;;;;;;11.90;3.10;;;7.20;99.90;;;;;;5037296;28;20375;-68
2022/05/30 01:15:28;;;;;;;12.23;3.25;;;7.20;99.90;;;;;;4949053;28;210272;-68
2022/05/30 01:18:20;;;;;;;13.48;2.95;;;7.20;99.90;;;;;;5036512;28;20391;-68
2022/05/30 01:20:49;;;;;;;19.25;3.55;;;7.10;99.90;;;;;;4957092;28;210237;-68
2022/05/30 01:23:34;;;;;;;13.98;3.33;;;7.10;99.90;;;;;;5041805;28;20036;-68
2022/05/30 01:26:22;;;;;;;15.60;3.22;;;7.10;99.90;;;;;;4947700;28;213157;-68
2022/05/30 01:29:22;;;;;;;11.88;2.78;;;7.00;99.90;;;;;;5002056;28;207409;-67
2022/05/30 01:31:48;;;;;;;12.57;3.20;;;7.00;99.90;;;;;;4996061;28;20513;-68
2022/05/30 01:34:14;;;;;;;11.18;2.90;;;7.00;99.90;;;;;;4965057;28;213741;-68
2022/05/30 01:36:40;;;;;;;13.32;2.95;;;7.00;99.90;;;;;;5011048;28;20048;-68
2022/05/30 01:39:07;;;;;;;13.57;3.28;;;7.00;99.90;;;;;;4965147;28;206826;-69
2022/05/30 01:41:33;;;;;;;12.68;3.00;;;7.00;99.90;;;;;;5025592;28;20079;-68
2022/05/30 01:43:59;;;;;;;11.32;3.10;;;7.00;99.90;;;;;;4973631;28;206982;-68
2022/05/30 01:46:26;;;;;;;11.90;3.20;;;6.90;99.90;;;;;;4990897;28;20076;-68
2022/05/30 01:48:53;;;;;;;12.55;3.33;;;6.90;99.90;;;;;;4995975;28;212056;-68
2022/05/30 01:51:21;;;;;;;11.82;2.95;;;6.90;99.90;;;;;;5016017;28;190514;-68
2022/05/30 01:53:49;;;;;;;12.38;2.95;;;6.90;99.90;;;;;;4997242;28;210653;-68
2022/05/30 01:56:15;;;;;;;10.07;3.00;;;6.90;99.90;;;;;;4989236;28;168235;-68
2022/05/30 01:58:41;;;;;;;11.07;2.73;;;6.90;99.90;;;;;;4989455;28;212537;-68
2022/05/30 02:01:20;;;;;;;11.38;3.00;;;6.90;99.90;;;;;;5005688;28;83335;-69
2022/05/30 02:03:47;;;;;;;12.65;2.92;;;6.80;99.90;;;;;;4975491;28;206986;-69
2022/05/30 02:06:14;;;;;;;9.82;2.97;;;6.80;99.90;;;;;;4985703;28;146369;-69
2022/05/30 02:08:40;;;;;;;11.00;2.67;;;6.80;99.90;;;;;;4998116;28;215416;-68
2022/05/30 02:11:08;;;;;;;13.05;3.10;;;6.80;99.90;;;;;;5013719;28;73790;-68
2022/05/30 02:13:35;;;;;;;12.25;2.95;;;6.70;99.90;;;;;;4974797;28;210268;-69
2022/05/30 02:18:48;;;;;;;13.18;3.30;;;6.70;99.90;;;;;;4991859;28;222587;-68
2022/05/30 02:21:14;;;;;;;12.88;3.20;;;6.60;99.90;;;;;;5006854;28;86920;-68
2022/05/30 02:23:40;;;;;;;11.05;3.17;;;6.60;99.90;;;;;;4990848;28;213729;-68
2022/05/30 02:26:06;;;;;;;10.18;2.75;;;6.60;99.90;;;;;;4999749;28;204890;-68
2022/05/30 02:28:32;;;;;;;12.35;3.42;;;6.50;99.90;;;;;;4992874;28;216244;-68
2022/05/30 02:30:59;;;;;;;11.18;3.05;;;6.50;99.90;;;;;;5003741;28;95025;-68
2022/05/30 02:38:54;;;;;;;14.25;3.67;;;6.40;99.90;;;;;;4980397;28;158363;-68
2022/05/30 02:41:20;;;;;;;10.80;3.03;;;6.40;99.90;;;;;;5009249;28;155025;-68
2022/05/30 02:43:46;;;;;;;10.68;3.30;;;6.30;99.90;;;;;;4998752;28;212254;-67
2022/05/30 02:46:13;;;;;;;10.93;2.97;;;6.30;99.90;;;;;;4999456;28;236684;-69
2022/05/30 02:48:39;;;;;;;9.77;3.20;;;6.30;99.90;;;;;;4990861;28;212823;-69
2022/05/30 02:51:06;;;;;;;10.02;3.13;;;6.30;99.90;;;;;;5017076;28;144423;-68
2022/05/30 02:53:32;;;;;;;11.63;3.38;;;6.20;99.90;;;;;;4995159;28;209689;-68
2022/05/30 02:55:59;;;;;;;13.07;3.60;;;6.20;99.90;;;;;;4987752;28;20060;-69
2022/05/30 02:58:25;;;;;;;11.77;3.50;;;6.10;99.90;;;;;;4995746;28;210539;-68
2022/05/30 03:00:51;;;;;;;11.82;3.08;;;6.10;99.90;;;;;;4999545;28;179199;-68
2022/05/30 03:03:18;;;;;;;11.05;3.28;;;6.00;99.90;;;;;;5024921;28;20045;-69
2022/05/30 03:05:44;;;;;;;11.45;3.53;;;6.00;99.90;;;;;;4943670;28;172944;-69
2022/05/30 03:08:11;;;;;;;11.27;3.35;;;6.00;99.90;;;;;;5019945;28;20502;-68
2022/05/30 03:10:37;;;;;;;12.45;3.55;;;5.90;99.90;;;;;;4945292;28;208265;-68
2022/05/30 03:13:05;;;;;;;11.93;3.60;;;5.90;99.90;;;;;;5021366;28;20055;-68
2022/05/30 03:15:32;;;;;;;13.93;3.45;;;5.90;99.90;;;;;;4944801;28;212891;-68
2022/05/30 03:17:58;;;;;;;11.20;3.60;;;5.80;99.90;;;;;;5038158;28;20051;-68
2022/05/30 03:20:25;;;;;;;11.85;3.72;;;5.80;99.90;;;;;;4955994;28;210258;-68
2022/05/30 03:22:51;;;;;;;13.77;4.38;;;5.90;99.90;;;;;;5041670;28;20426;-68
2022/05/30 03:25:18;;;;;;;9.70;3.90;;;6.00;99.90;;;;;;4923540;28;264993;-68
2022/05/30 03:27:44;;;;;;;10.93;3.85;;;6.10;99.90;;;;;;5039778;28;21338;-67
2022/05/30 03:30:12;;;;;;;14.40;4.00;;;6.10;99.90;;;;;;4949365;28;198473;-69
2022/05/30 03:32:39;;;;;;;10.35;3.53;;;6.10;99.90;;;;;;5036963;28;20052;-67
2022/05/30 03:35:05;;;;;;;12.45;3.38;;;6.20;99.90;;;;;;4959352;28;207009;-68
2022/05/30 03:37:32;;;;;;;14.05;3.60;;;6.20;99.90;;;;;;5031526;28;20060;-69
2022/05/30 03:39:58;;;;;;;11.50;3.25;;;6.30;99.90;;;;;;4951742;28;161058;-68
2022/05/30 03:42:25;;;;;;;11.00;3.20;;;6.30;99.90;;;;;;5029426;28;20210;-69
2022/05/30 03:44:51;;;;;;;11.90;3.28;;;6.30;99.90;;;;;;4967168;28;210292;-69
2022/05/30 03:47:18;;;;;;;10.88;3.03;;;6.20;99.90;;;;;;5015208;28;20418;-68
2022/05/30 03:49:44;;;;;;;17.30;2.97;;;6.20;99.90;;;;;;4975860;28;211075;-68
2022/05/30 03:52:10;;;;;;;12.10;3.03;;;6.20;99.90;;;;;;5027704;28;20045;-68
2022/05/30 03:54:36;;;;;;;11.48;3.25;;;6.20;99.90;;;;;;4982599;28;210380;-68
2022/05/30 03:57:03;;;;;;;11.70;2.83;;;6.20;99.90;;;;;;5036166;28;20060;-68
2022/05/30 03:59:29;;;;;;;10.68;2.88;;;6.20;99.90;;;;;;4980919;28;254221;-68
2022/05/30 04:01:55;;;;;;;9.05;2.53;;;6.20;99.90;;;;;;5030371;28;20045;-69
2022/05/30 04:04:22;;;;;;;9.20;2.75;;;6.20;99.90;;;;;;4962668;28;213586;-68
2022/05/30 04:06:48;;;;;;;10.20;2.58;;;6.20;99.90;;;;;;5026137;28;20045;-68
2022/05/30 04:09:15;;;;;;;11.98;3.13;;;6.20;99.90;;;;;;4970103;28;212908;-68
2022/05/30 04:11:41;;;;;;;7.35;2.50;;;6.20;99.90;;;;;;5016272;28;20064;-68
2022/05/30 04:14:07;;;;;;;11.23;2.88;;;6.20;99.90;;;;;;4962554;28;207896;-68
2022/05/30 04:16:33;;;;;;;9.80;3.20;;;6.30;99.90;;;;;;5026604;28;20053;-68
2022/05/30 04:19:01;;;;;;;9.70;2.63;;;6.30;99.90;;;;;;4990397;28;210107;-68
2022/05/30 04:21:27;;;;;;;9.15;2.90;;;6.30;99.90;;;;;;4980468;28;20518;-69
2022/05/30 04:23:54;;;;;;;13.52;3.30;;;6.40;99.90;;;;;;4994750;28;220846;-69
2022/05/30 04:26:20;;;;;;;8.75;2.85;;;6.40;99.90;;;;;;5011418;28;120480;-68
2022/05/30 04:28:46;;;;;;;10.05;2.80;;;6.50;99.90;;;;;;4977389;28;192046;-68
2022/05/30 04:31:13;;;;;;;9.48;3.15;;;6.60;99.90;;;;;;4988711;28;168941;-68
2022/05/30 04:33:41;;;;;;;11.57;3.20;;;6.60;99.90;;;;;;4974808;28;219711;-68
2022/05/30 04:36:08;;;;;;;10.77;3.30;;;6.70;99.90;;;;;;5015930;28;135942;-67
2022/05/30 04:38:36;;;;;;;10.02;2.83;;;6.70;99.90;;;;;;4992460;28;210129;-67
2022/05/30 04:41:03;;;;;;;10.18;3.22;;;6.80;99.90;;;;;;5019180;28;61397;-68
2022/05/30 04:43:29;;;;;;;9.48;2.92;;;6.80;99.90;;;;;;4993927;28;213559;-67
2022/05/30 04:46:17;;;;;;;8.75;2.90;;;6.90;99.90;;;;;;5015921;28;73832;-68
2022/05/30 04:48:44;;;;;;;9.60;3.15;;;7.00;99.90;;;;;;5003001;28;209913;-68
2022/05/30 04:51:11;;;;;;;8.60;2.92;;;7.10;99.90;;;;;;5016313;22;137522;-78
2022/05/30 04:53:37;;;;;;;9.00;3.00;;;7.10;99.90;;;;;;4949601;28;220923;-77
2022/05/30 04:56:04;;;;;;;10.02;3.22;;;7.20;99.90;;;;;;4996280;28;61245;-78
2022/05/30 04:58:33;;;;;;;10.70;3.20;;;7.20;99.90;;;;;;4954725;28;215834;-77
2022/05/30 05:01:02;;;;;;;10.63;3.08;;;7.30;99.90;;;;;;4949403;28;118269;-77
2022/05/30 05:03:29;;;;;;;12.27;3.13;;;7.40;99.90;;;;;;4938411;28;215109;-77
2022/05/30 05:06:17;;;;;;;9.27;2.63;;;7.40;99.90;;;;;;4969521;23;274025;-68
2022/05/30 05:08:58;;;;;;;12.95;3.03;;;7.60;99.90;;;;;;4980603;28;212647;-68
2022/05/30 05:11:26;;;;;;;9.05;2.88;;;7.60;99.90;;;;;;5012646;28;157654;-68
2022/05/30 05:13:53;;;;;;;11.43;2.75;;;7.60;99.90;;;;;;4972001;28;206486;-68
2022/05/30 05:16:23;;;;;;;9.38;2.83;;;7.70;99.90;;;;;;4999108;28;61208;-68
2022/05/30 05:18:49;;;;;;;11.07;3.13;;;7.70;99.90;;;;;;4994692;28;180473;-68
2022/05/30 05:21:22;;;;;;;8.73;2.90;;;7.70;99.90;;;;;;5003800;28;252060;-68
2022/05/30 05:23:48;;;;;;;14.23;2.90;;;7.80;99.90;;;;;;4970987;28;220079;-68
2022/05/30 05:26:16;;;;;;;10.20;2.78;;;7.80;99.90;;;;;;5019934;28;91389;-67
2022/05/30 05:28:42;;;;;;;11.05;2.80;;;7.90;99.90;;;;;;4976290;28;211780;-68
2022/05/30 05:31:11;;;;;;;8.73;2.70;;;8.10;99.90;;;;;;5019653;28;104074;-68
2022/05/30 05:33:37;;;;;;;11.57;3.10;;;8.20;99.90;;;;;;4970781;28;212282;-68
2022/05/30 05:36:04;;;;;;;13.95;3.42;;;8.30;99.90;;;;;;4976930;28;175684;-68
2022/05/30 05:38:30;;;;;;;11.38;3.10;;;8.40;99.90;;;;;;4967704;28;212007;-68
2022/05/30 05:40:56;;;;;;;10.48;3.00;;;8.60;99.90;;;;;;4999017;28;248522;-68
2022/05/30 05:43:23;;;;;;;9.50;2.70;;;8.70;99.90;;;;;;5003269;28;211532;-68
2022/05/30 05:45:49;;;;;;;9.30;2.58;;;8.80;99.90;;;;;;4957680;28;239091;-68
2022/05/30 05:48:15;;;;;;;11.27;2.80;;;8.90;99.90;;;;;;5018667;28;21750;-68
2022/05/30 05:50:43;;;;;;;10.32;2.40;;;9.10;99.90;;;;;;4965303;28;206645;-68
2022/05/30 05:53:11;;;;;;;11.30;2.70;;;9.30;99.90;;;;;;5021976;28;20438;-67
2022/05/30 05:55:40;;;;;;;11.57;2.22;;;9.40;99.90;;;;;;4949998;28;213847;-69
2022/05/30 05:58:07;;;;;;;9.27;2.30;;;9.80;99.90;;;;;;5025031;28;20053;-67
2022/05/30 06:00:34;;;;;;;9.23;2.10;;;10.10;99.90;;;;;;4947613;28;212201;-67
2022/05/30 06:03:01;;;;;;;8.55;2.20;;;10.40;99.90;;;;;;5009963;28;20069;-67
2022/05/30 06:05:30;;;;;;;8.05;1.92;;;10.70;99.90;;;;;;4937059;28;212243;-68
2022/05/30 06:07:59;;;;;;;8.32;2.28;;;10.90;99.90;;;;;;5020766;28;20045;-68
2022/05/30 06:10:25;;;;;;;11.23;2.00;;;11.10;99.90;;;;;;4971369;28;218306;-67
2022/05/30 06:12:52;;;;;;;8.02;1.90;;;11.10;99.90;;;;;;5019085;28;20056;-68
2022/05/30 06:15:19;;;;;;;8.10;2.03;;;11.10;99.90;;;;;;4955640;28;231172;-68
2022/05/30 06:17:46;;;;;;;9.02;1.67;;;11.10;99.90;;;;;;5027249;28;21289;-68
2022/05/30 06:20:15;;;;;;;7.90;1.75;;;11.30;99.90;;;;;;4962601;28;206726;-68
2022/05/30 06:22:41;;;;;;;7.75;1.52;;;11.30;99.90;;;;;;5028753;28;20064;-68
2022/05/30 06:25:07;;;;;;;8.95;1.67;;;11.40;99.90;;;;;;4941389;28;196637;-68
2022/05/30 06:27:34;;;;;;;9.18;1.67;;;11.40;99.90;;;;;;5013403;28;20065;-68
2022/05/30 06:30:04;;;;;;;10.02;1.80;;;11.30;99.90;;;;;;4973430;28;214899;-68
2022/05/30 06:32:30;;;;;;;9.10;1.80;;;11.50;99.90;;;;;;5022022;28;20064;-68
2022/05/30 06:34:56;;;;;;;8.70;1.80;;;11.70;99.90;;;;;;4970333;28;234046;-68
2022/05/30 06:37:23;;;;;;;8.60;1.65;;;11.90;99.90;;;;;;5023193;28;20045;-69
2022/05/30 06:39:52;;;;;;;6.68;1.25;;;12.00;99.90;;;;;;4959914;28;213028;-68
2022/05/30 06:42:18;;;;;;;8.32;1.30;;;12.20;99.90;;;;;;5017915;28;20376;-69
2022/05/30 06:44:44;;;;;;;6.45;1.20;;;12.40;99.90;;;;;;4964990;28;223152;-69
2022/05/30 06:47:12;;;;;;;6.38;1.13;;;12.60;99.90;;;;;;5032386;28;20674;-67
2022/05/30 06:49:38;;;;;;;5.88;1.27;;;12.80;99.90;;;;;;4945536;28;218206;-67
2022/05/30 06:52:05;;;;;;;4.25;1.00;;;12.90;99.90;;;;;;5018632;28;20040;-67
2022/05/30 06:54:31;;;;;;;6.70;1.20;;;13.00;99.90;;;;;;4971729;28;210813;-66
2022/05/30 06:59:42;;;;;;;6.70;1.20;;;13.20;99.90;;;;;;4962559;28;210828;-68
2022/05/30 07:02:08;;;;;;;5.80;1.10;;;13.40;99.90;;;;;;5022968;28;20057;-67
2022/05/30 07:04:35;;;;;;;5.13;1.00;;;13.60;99.90;;;;;;4951387;28;212862;-67
2022/05/30 07:07:04;;;;;;;5.88;1.08;;;14.00;99.90;;;;;;5019707;28;20060;-66
2022/05/30 07:09:31;;;;;;;8.55;1.13;;;14.10;99.90;;;;;;4966455;28;215054;-67
2022/05/30 07:11:57;;;;;;;5.50;0.85;;;14.10;99.90;;;;;;5032799;28;20453;-68
2022/05/30 07:14:23;;;;;;;4.78;0.82;;;14.00;99.90;;;;;;4965093;28;216760;-69
2022/05/30 07:16:49;;;;;;;4.70;0.80;;;13.80;99.90;;;;;;5028008;28;20045;-67
2022/05/30 07:19:16;;;;;;;7.20;1.00;;;13.80;99.90;;;;;;4970498;28;129893;-67
2022/05/30 07:21:42;;;;;;;4.50;0.90;;;13.50;99.90;;;;;;5026211;28;20064;-69
2022/05/30 07:24:11;;;;;;;7.38;0.98;;;13.10;99.90;;;;;;4969251;28;211973;-68
2022/05/30 07:26:37;;;;;;;5.20;1.00;;;13.10;99.90;;;;;;5018688;28;20060;-68
2022/05/30 07:29:04;;;;;;;7.80;0.90;;;13.20;99.90;;;;;;4956637;28;217041;-67
2022/05/30 07:31:31;;;;;;;4.93;1.00;;;13.30;99.90;;;;;;5036045;28;20129;-68
2022/05/30 07:33:58;;;;;;;5.75;1.00;;;13.50;99.90;;;;;;4971920;28;209545;-68
2022/05/30 07:36:27;;;;;;;3.45;0.90;;;13.50;99.90;;;;;;4980613;28;234114;-68
2022/05/30 07:38:54;;;;;;;3.92;0.80;;;13.70;99.90;;;;;;4979207;28;212340;-68
2022/05/30 07:41:22;;;;;;;5.75;0.90;;;13.90;99.90;;;;;;5025044;28;42105;-68
2022/05/30 07:43:49;;;;;;;5.55;1.00;;;13.90;99.90;;;;;;4979750;28;213131;-67
2022/05/30 07:46:17;;;;;;;3.63;0.70;;;13.80;99.90;;;;;;5005640;28;255146;-68
2022/05/30 07:48:44;;;;;;;4.85;0.90;;;13.60;99.90;;;;;;4980138;28;213886;-69
2022/05/30 07:51:12;;;;;;;6.55;0.90;;;13.40;99.90;;;;;;4989071;28;20049;-68
2022/05/30 07:53:40;;;;;;;10.17;1.10;;;13.30;99.90;;;;;;4971603;28;215177;-68
2022/05/30 07:56:09;;;;;;;4.75;0.82;;;13.20;99.90;;;;;;5005749;28;230402;-66
2022/05/30 07:58:38;;;;;;;9.10;1.20;;;13.20;99.90;;;;;;4975350;28;218282;-65
2022/05/30 08:01:10;;;;;;;5.38;0.90;;;13.10;99.90;;;;;;5006753;28;142434;-67
2022/05/30 08:03:36;;;;;;;6.57;0.82;;;13.20;99.90;;;;;;4979041;28;215213;-67
2022/05/30 08:06:07;;;;;;;7.05;1.10;;;13.50;99.90;;;;;;5007443;28;183260;-67
2022/05/30 08:08:33;;;;;;;;;;;13.80;99.90;;;;;;4980166;28;210192;-68
2022/05/30 08:10:59;;;;;;;7.13;0.98;;;14.00;99.90;;;;;;5023383;28;149292;-69
2022/05/30 08:13:26;;;;;;;5.97;0.95;;;14.10;99.90;;;;;;4997697;28;219583;-67
2022/05/30 08:15:52;;;;;;;5.68;0.90;;;14.00;99.90;;;;;;4998000;28;207341;-68
2022/05/30 08:18:18;;;;;;;3.30;0.60;;;14.00;99.90;;;;;;5026782;28;20056;-68
2022/05/30 08:20:45;;;;;;;3.60;0.60;;;13.90;99.90;;;;;;4963140;28;206392;-67
2022/05/30 08:23:11;;;;;;;4.43;0.85;;;13.60;99.90;;;;;;5025990;28;20431;-67
2022/05/30 08:25:43;;;;;;;2.58;0.50;;;13.20;99.90;;;;;;4959762;28;235704;-66
2022/05/30 08:28:09;;;;;;;3.72;0.60;;;13.00;99.90;;;;;;5004453;28;20093;-66
2022/05/30 08:30:35;;;;;;;2.67;0.50;;;12.90;99.90;;;;;;4980630;28;207859;-66
2022/05/30 08:33:01;;;;;;;2.72;0.52;;;12.80;99.90;;;;;;5029626;28;20049;-67
2022/05/30 08:35:28;;;;;;;3.83;0.60;;;12.70;99.90;;;;;;4985846;28;219981;-68
2022/05/30 08:37:57;;;;;;;2.97;0.55;;;12.80;99.90;;;;;;5026928;28;20061;-67
2022/05/30 08:43:35;;;;;;;3.42;0.63;;;13.60;99.90;;;;;;5025369;28;20076;-68
2022/05/30 08:46:36;;;;;;;4.15;0.70;;;13.90;99.90;;;;;;4946925;28;231538;-68
2022/05/30 08:49:19;;;;;;;2.15;0.50;;;14.60;99.90;;;;;;4942186;28;207301;-67
2022/05/30 08:52:12;;;;;;;2.50;0.50;;;14.90;99.90;;;;;;5003748;28;20474;-66
2022/05/30 08:55:03;;;;;;;3.25;0.50;;;15.60;99.20;;;;;;4930645;28;217730;-68
2022/05/30 08:57:39;;;;;;;2.50;0.40;;;16.10;98.20;;;;;;5002316;28;20080;-67
2022/05/30 09:00:17;;;;;;;2.83;0.60;;;16.30;97.70;;;;;;4933959;28;236148;-66
2022/05/30 09:03:22;;;;;;;3.47;0.50;;;16.40;99.90;;;;;;5002497;28;20061;-67
2022/05/30 09:05:53;;;;;;;3.88;0.60;;;16.50;99.90;;;;;;4804544;29;206278;-67
2022/05/30 09:08:45;;;;;;;5.32;0.68;;;16.70;98.30;;;;;;4894796;29;20052;-67
2022/05/30 09:11:43;;;;;;;3.38;0.50;;;16.70;98.30;;;;;;4838859;29;206317;-67
2022/05/30 09:14:15;;;;;;;3.08;0.60;;;16.60;97.80;;;;;;4834842;29;210715;-68
2022/05/30 09:16:47;;;;;;;5.20;0.75;;;16.30;98.80;;;;;;4887745;29;20136;-67
2022/05/30 09:19:15;;;;;;;3.23;0.60;;;15.90;98.10;;;;;;4831721;29;281175;-67
2022/05/30 09:21:41;;;;;;;3.95;0.70;;;15.10;98.80;;;;;;4873796;29;20063;-70
2022/05/30 09:24:08;;;;;;;5.97;0.70;;;13.70;99.90;;;;;;4812759;29;235604;-68
2022/05/30 09:26:37;;;;;;;5.38;0.98;;;13.20;99.90;;;;;;4889103;29;20074;-68
2022/05/30 09:29:08;;;;;;;2.58;0.60;;;12.90;99.90;;;;;;4873576;29;206807;-69
2022/05/30 09:31:46;;;;;;;2.92;0.60;;;12.60;99.90;;;;;;4912742;29;20059;-68
2022/05/30 09:34:33;;;;;;;3.92;0.70;;;12.30;99.90;;;;;;4869777;29;227073;-68
2022/05/30 09:36:59;;;;;;;3.42;0.77;;;11.90;99.90;;;;;;4923127;29;20517;-67
2022/05/30 09:39:25;;;;;;;3.55;0.70;;;11.80;99.90;;;;;;4899402;28;205676;-66
2022/05/30 09:41:57;;;;;;;4.72;0.93;;;11.80;99.90;;;;;;5002302;28;20439;-65
2022/05/30 09:44:29;;;;;;;4.57;0.90;;;11.90;99.90;;;;;;4980887;28;188876;-67
2022/05/30 09:47:02;;;;;;;6.22;1.00;;;12.00;99.90;;;;;;5013381;28;20057;-66
2022/05/30 09:49:44;;;;;;;3.10;0.70;;;12.10;99.90;;;;;;4965421;28;206686;-65
2022/05/30 09:52:26;;;;;;;2.80;0.52;;;12.30;99.90;;;;;;5016791;28;20049;-66
2022/05/30 09:54:54;;;;;;;2.28;0.52;;;12.30;99.90;;;;;;4959741;28;213999;-65
2022/05/30 09:57:35;;;;;;;3.55;0.60;;;12.50;99.90;;;;;;5029158;28;20049;-65
2022/05/30 10:00:20;;;;;;;3.00;0.63;;;12.80;99.90;;;;;;4966764;28;212773;-64
2022/05/30 10:03:00;;;;;;;3.10;0.50;;;13.10;99.90;;;;;;5025117;28;20053;-64
2022/05/30 10:05:29;;;;;;;4.72;0.80;;;13.30;99.90;;;;;;4937497;28;221912;-66
2022/05/30 10:07:59;;;;;;;1.02;0.40;;;13.50;99.90;;;;;;5017366;28;20498;-66
2022/05/30 10:10:38;;;;;;;3.08;0.60;;;13.70;99.90;;;;;;4973245;28;187253;-66
2022/05/30 10:13:10;;;;;;;2.47;0.50;;;13.80;99.90;;;;;;5036789;28;20510;-66
2022/05/30 10:15:37;;;;;;;1.70;0.50;;;13.90;99.90;;;;;;4942552;28;205234;-64
2022/05/30 10:18:13;;;;;;;4.40;0.65;;;14.10;99.90;;;;;;5022712;28;20068;-65
2022/05/30 10:21:11;;;;;;;2.38;0.52;;;14.20;99.90;;;;;;4944857;28;204905;-66
2022/05/30 10:30:47;;;;;;;3.53;0.50;;;14.40;99.90;;;;;;4912591;28;205321;-65
2022/05/30 10:33:18;;;;;;;5.05;0.60;;;14.60;99.90;;;;;;4980421;28;20081;-66
2022/05/30 10:35:58;;;;;;;3.67;0.50;;;14.70;99.90;;;;;;4921625;28;210975;-66
2022/05/30 10:38:40;;;;;;;3.38;0.60;;;14.90;99.90;;;;;;4949810;28;206766;-66
2022/05/30 10:41:55;;;;;;;4.55;0.90;;;15.10;99.90;;;;;;4907229;28;247438;-66
2022/05/30 10:44:29;;;;;;;2.90;0.60;;;15.30;99.90;;;;;;4869201;28;201758;-67
2022/05/30 10:47:03;;;;;;;2.17;0.52;;;15.50;99.90;;;;;;4909527;29;20437;-67
2022/05/30 10:49:39;;;;;;;4.32;0.80;;;15.70;99.90;;;;;;4877290;28;205866;-67
2022/05/30 10:52:26;;;;;;;5.00;0.88;;;15.90;99.90;;;;;;4913873;29;20060;-66
2022/05/30 10:55:01;;;;;;;3.28;0.60;;;16.00;99.90;;;;;;4857260;28;206999;-66
2022/05/30 10:57:53;;;;;;;3.22;0.70;;;16.10;99.90;;;;;;4925590;29;20051;-66
2022/05/30 11:00:25;;;;;;;2.10;0.60;;;15.80;99.90;;;;;;4865751;28;213498;-67
2022/05/30 11:02:57;;;;;;;5.38;0.80;;;15.50;99.90;;;;;;4926442;29;20059;-67
2022/05/30 11:05:42;;;;;;;5.03;0.85;;;15.20;99.90;;;;;;4833529;29;210596;-67
2022/05/30 11:08:17;;;;;;;5.20;0.80;;;14.50;99.90;;;;;;4979195;28;20098;-67
2022/05/30 11:10:50;;;;;;;4.78;0.93;;;13.80;99.90;;;;;;4932637;28;215366;-67
2022/05/30 11:13:38;;;;;;;5.22;1.10;;;13.30;99.90;;;;;;4989154;28;20073;-68
2022/05/30 11:16:21;;;;;;;5.55;1.20;;;13.10;99.90;;;;;;4913191;28;207302;-68
2022/05/30 11:18:59;;;;;;;5.25;0.90;;;12.90;99.90;;;;;;4934468;28;206094;-67
2022/05/30 11:21:43;;;;;;;6.28;1.00;;;12.80;99.90;;;;;;4984616;28;20475;-67
2022/05/30 11:24:10;;;;;;;4.70;1.00;;;12.70;99.90;;;;;;4959906;28;258896;-67
2022/05/30 11:26:48;;;;;;;5.07;1.00;;;12.60;99.90;;;;;;5018159;28;20434;-67
2022/05/30 11:29:44;;;;;;;6.78;1.20;;;12.70;99.90;;;;;;4957703;28;251502;-67
2022/05/30 11:32:26;;;;;;;5.75;1.10;;;12.80;99.90;;;;;;5023134;28;20049;-67
2022/05/30 11:35:05;;;;;;;6.45;1.15;;;12.80;99.90;;;;;;4959864;28;213078;-67
2022/05/30 11:37:54;;;;;;;5.57;1.10;;;12.90;99.90;;;;;;5015992;28;20072;-65
2022/05/30 11:40:38;;;;;;;6.35;1.10;;;12.90;99.90;;;;;;4961162;28;211755;-66
2022/05/30 11:43:36;;;;;;;5.82;1.20;;;12.90;99.90;;;;;;5031731;28;20092;-69
2022/05/30 11:46:48;;;;;;;7.13;1.20;;;13.00;99.90;;;;;;4957945;28;206669;-69
2022/05/30 11:49:44;;;;;;;4.18;0.95;;;13.20;99.90;;;;;;4982159;28;207222;-69
2022/05/30 11:52:16;;;;;;;3.83;0.95;;;13.30;99.90;;;;;;4940803;28;20058;-69
2022/05/30 11:55:03;;;;;;;6.70;1.33;;;13.50;99.90;;;;;;4928242;28;200074;-69
2022/05/30 11:57:40;;;;;;;4.45;1.05;;;13.70;99.90;;;;;;4962462;28;20051;-70
2022/05/30 12:00:19;;;;;;;4.65;0.90;;;13.80;99.90;;;;;;4912550;28;202731;-69
2022/05/30 12:02:57;;;;;;;5.68;1.10;;;14.00;99.90;;;;;;4942967;28;20051;-68
2022/05/30 12:05:56;;;;;;;3.13;0.82;;;14.30;99.90;;;;;;4909303;28;206137;-69
2022/05/30 12:08:41;;;;;;;4.57;0.90;;;14.70;99.90;;;;;;4955938;28;34841;-70
2022/05/30 12:11:13;;;;;;;5.60;1.00;;;15.00;99.90;;;;;;4925812;28;79510;-70
2022/05/30 12:13:51;;;;;;;2.58;0.65;;;15.20;99.90;;;;;;4921711;28;191688;-68
2022/05/30 12:16:47;;;;;;;5.32;0.88;;;15.50;99.90;;;;;;4959883;28;41559;-70
2022/05/30 12:24:54;;;;;;;3.38;0.70;;;16.40;99.90;;;;;;4909043;28;206268;-71
2022/05/30 12:27:26;;;;;;;3.95;0.90;;;16.50;99.90;;;;;;4967073;28;20058;-70
2022/05/30 12:29:53;;;;;;;4.70;0.90;;;16.70;99.90;;;;;;4947966;28;218065;-70
2022/05/30 12:32:41;;;;;;;5.72;1.13;;;17.00;99.90;;;;;;5014204;28;20091;-70
2022/05/30 12:35:20;;;;;;;6.47;0.93;;;17.20;99.90;;;;;;4974751;28;213360;-70
2022/05/30 12:37:52;;;;;;;4.60;0.82;;;17.50;99.90;;;;;;5022253;28;20050;-70
2022/05/30 12:40:27;;;;;;;6.40;1.10;;;17.80;99.90;;;;;;4975099;28;212638;-71
2022/05/30 12:43:23;;;;;;;5.03;1.00;;;17.90;99.00;;;;;;5022042;28;20057;-69
2022/05/30 12:45:55;;;;;;;5.15;0.98;;;18.40;99.90;;;;;;4986659;28;216945;-70
2022/05/30 12:48:33;;;;;;;5.93;1.20;;;18.40;99.90;;;;;;5038147;28;20049;-69
2022/05/30 12:51:01;;;;;;;5.75;1.17;;;18.30;99.90;;;;;;4972243;28;209388;-68
2022/05/30 12:53:55;;;;;;;5.57;0.90;;;18.40;99.90;;;;;;4982203;28;212726;-68
2022/05/30 12:56:37;;;;;;;4.18;1.00;;;18.20;99.70;;;;;;5011784;28;63569;-69
2022/05/30 12:59:03;;;;;;;6.78;1.00;;;18.10;99.90;;;;;;4956417;28;215503;-68
2022/05/30 13:01:44;;;;;;;4.15;0.90;;;18.00;99.90;;;;;;5030225;28;20383;-69
2022/05/30 13:04:16;;;;;;;6.72;1.20;;;17.70;99.90;;;;;;4959726;28;156557;-68
2022/05/30 13:06:57;;;;;;;5.97;1.00;;;17.50;99.90;;;;;;5026485;28;20845;-69
2022/05/30 13:09:33;;;;;;;4.40;0.82;;;17.30;99.90;;;;;;4955985;28;253150;-69
2022/05/30 13:12:13;;;;;;;4.32;1.08;;;17.10;99.90;;;;;;5020811;28;20058;-69
2022/05/30 13:15:00;;;;;;;5.90;1.08;;;16.80;99.90;;;;;;4970954;28;212821;-68
2022/05/30 13:17:40;;;;;;;5.18;1.15;;;16.50;99.90;;;;;;5038676;28;20399;-69
2022/05/30 13:20:27;;;;;;;6.10;1.20;;;16.20;99.90;;;;;;4952935;28;212159;-72
2022/05/30 13:22:57;;;;;;;7.72;1.20;;;15.70;99.90;;;;;;5028281;28;20041;-73
2022/05/30 13:25:34;;;;;;;7.55;1.20;;;15.20;99.90;;;;;;4960868;28;251972;-73
2022/05/30 13:28:24;;;;;;;8.50;1.05;;;14.70;99.90;;;;;;5026003;28;20133;-72
2022/05/30 13:30:53;;;;;;;8.30;1.15;;;14.30;99.90;;;;;;4972032;28;206042;-73
2022/05/30 13:33:24;;;;;;;4.72;1.05;;;14.00;99.90;;;;;;5039697;28;20057;-72
2022/05/30 13:35:55;;;;;;;;;;;13.80;99.90;;;;;;4958237;28;206180;-70